sensor_id;sensor_type;location;lat;lon;timestamp;P1;durP1;ratioP1;P2;durP2;ratioP2
33862;SDS011;20158;51.436;-2.742;2023-01-31T00:01:14;11.07;;;4.72;;
33862;SDS011;20158;51.436;-2.742;2023-01-31T00:03:42;10.32;;;4.03;;
33862;SDS011;20158;51.436;-2.742;2023-01-31T00:08:40;11.95;;;5.82;;
33862;SDS011;20158;51.436;-2.742;2023-01-31T00:11:07;15.43;;;5.65;;
33862;SDS011;20158;51.436;-2.742;2023-01-31T00:13:33;14.88;;;3.95;;
33862;SDS011;20158;51.436;-2.742;2023-01-31T00:15:59;13.88;;;4.30;;
33862;SDS011;20158;51.436;-2.742;2023-01-31T00:18:25;9.90;;;3.63;;
33862;SDS011;20158;51.436;-2.742;2023-01-31T00:20:51;12.55;;;5.00;;
33862;SDS011;20158;51.436;-2.742;2023-01-31T00:23:17;10.80;;;3.17;;
33862;SDS011;20158;51.436;-2.742;2023-01-31T00:25:43;16.48;;;3.67;;
33862;SDS011;20158;51.436;-2.742;2023-01-31T00:28:09;6.18;;;2.80;;
33862;SDS011;20158;51.436;-2.742;2023-01-31T00:30:35;5.47;;;3.35;;
33862;SDS011;20158;51.436;-2.742;2023-01-31T00:33:01;10.88;;;3.97;;
33862;SDS011;20158;51.436;-2.742;2023-01-31T00:35:27;8.02;;;2.95;;
33862;SDS011;20158;51.436;-2.742;2023-01-31T00:37:53;8.05;;;3.92;;
33862;SDS011;20158;51.436;-2.742;2023-01-31T00:40:19;11.43;;;3.38;;
33862;SDS011;20158;51.436;-2.742;2023-01-31T00:42:45;9.85;;;2.88;;
33862;SDS011;20158;51.436;-2.742;2023-01-31T00:45:11;9.73;;;3.35;;
33862;SDS011;20158;51.436;-2.742;2023-01-31T00:47:37;10.15;;;3.33;;
33862;SDS011;20158;51.436;-2.742;2023-01-31T00:50:03;11.48;;;4.85;;
33862;SDS011;20158;51.436;-2.742;2023-01-31T00:52:30;7.40;;;2.63;;
33862;SDS011;20158;51.436;-2.742;2023-01-31T00:54:56;9.23;;;2.97;;
33862;SDS011;20158;51.436;-2.742;2023-01-31T00:57:22;9.70;;;2.90;;
33862;SDS011;20158;51.436;-2.742;2023-01-31T00:59:49;11.90;;;2.70;;
33862;SDS011;20158;51.436;-2.742;2023-01-31T01:02:14;9.30;;;2.88;;
33862;SDS011;20158;51.436;-2.742;2023-01-31T01:04:40;7.10;;;2.55;;
33862;SDS011;20158;51.436;-2.742;2023-01-31T01:07:06;11.73;;;2.80;;
33862;SDS011;20158;51.436;-2.742;2023-01-31T01:09:32;8.30;;;2.97;;
33862;SDS011;20158;51.436;-2.742;2023-01-31T01:11:58;6.55;;;2.97;;
33862;SDS011;20158;51.436;-2.742;2023-01-31T01:14:24;7.28;;;2.10;;
33862;SDS011;20158;51.436;-2.742;2023-01-31T01:16:50;8.25;;;2.17;;
33862;SDS011;20158;51.436;-2.742;2023-01-31T01:19:18;7.47;;;3.83;;
33862;SDS011;20158;51.436;-2.742;2023-01-31T01:21:45;5.90;;;2.33;;
33862;SDS011;20158;51.436;-2.742;2023-01-31T01:24:13;11.13;;;2.88;;
33862;SDS011;20158;51.436;-2.742;2023-01-31T01:26:41;10.30;;;3.70;;
33862;SDS011;20158;51.436;-2.742;2023-01-31T01:29:08;6.55;;;2.42;;
33862;SDS011;20158;51.436;-2.742;2023-01-31T01:31:34;10.13;;;2.33;;
33862;SDS011;20158;51.436;-2.742;2023-01-31T01:34:03;10.13;;;3.05;;
33862;SDS011;20158;51.436;-2.742;2023-01-31T01:36:36;8.60;;;2.75;;
33862;SDS011;20158;51.436;-2.742;2023-01-31T01:39:03;9.45;;;2.42;;
33862;SDS011;20158;51.436;-2.742;2023-01-31T01:41:31;7.78;;;2.55;;
33862;SDS011;20158;51.436;-2.742;2023-01-31T01:44:01;9.38;;;2.35;;
33862;SDS011;20158;51.436;-2.742;2023-01-31T01:46:33;7.63;;;1.80;;
33862;SDS011;20158;51.436;-2.742;2023-01-31T01:49:14;14.18;;;3.28;;
33862;SDS011;20158;51.436;-2.742;2023-01-31T01:51:54;5.75;;;2.42;;
33862;SDS011;20158;51.436;-2.742;2023-01-31T01:54:27;8.93;;;2.65;;
33862;SDS011;20158;51.436;-2.742;2023-01-31T01:56:59;7.82;;;1.95;;
33862;SDS011;20158;51.436;-2.742;2023-01-31T01:59:30;9.65;;;2.50;;
33862;SDS011;20158;51.436;-2.742;2023-01-31T02:02:01;8.43;;;2.65;;
33862;SDS011;20158;51.436;-2.742;2023-01-31T02:04:30;7.53;;;2.78;;
33862;SDS011;20158;51.436;-2.742;2023-01-31T02:07:00;7.13;;;2.30;;
33862;SDS011;20158;51.436;-2.742;2023-01-31T02:12:04;8.13;;;1.80;;
33862;SDS011;20158;51.436;-2.742;2023-01-31T02:14:31;8.02;;;2.88;;
33862;SDS011;20158;51.436;-2.742;2023-01-31T02:16:56;8.02;;;2.25;;
33862;SDS011;20158;51.436;-2.742;2023-01-31T02:19:27;6.82;;;2.30;;
33862;SDS011;20158;51.436;-2.742;2023-01-31T02:22:05;9.32;;;2.75;;
33862;SDS011;20158;51.436;-2.742;2023-01-31T02:30:45;7.68;;;2.38;;
33862;SDS011;20158;51.436;-2.742;2023-01-31T02:39:09;7.72;;;2.22;;
33862;SDS011;20158;51.436;-2.742;2023-01-31T02:41:56;9.77;;;2.72;;
33862;SDS011;20158;51.436;-2.742;2023-01-31T02:44:36;10.82;;;2.58;;
33862;SDS011;20158;51.436;-2.742;2023-01-31T02:49:55;6.00;;;2.15;;
33862;SDS011;20158;51.436;-2.742;2023-01-31T02:52:40;8.98;;;2.50;;
33862;SDS011;20158;51.436;-2.742;2023-01-31T02:55:37;7.97;;;2.20;;
33862;SDS011;20158;51.436;-2.742;2023-01-31T02:58:40;8.95;;;2.15;;
33862;SDS011;20158;51.436;-2.742;2023-01-31T03:01:09;8.88;;;2.40;;
33862;SDS011;20158;51.436;-2.742;2023-01-31T03:03:39;8.93;;;1.90;;
33862;SDS011;20158;51.436;-2.742;2023-01-31T03:06:37;10.63;;;2.97;;
33862;SDS011;20158;51.436;-2.742;2023-01-31T03:09:07;7.43;;;2.42;;
33862;SDS011;20158;51.436;-2.742;2023-01-31T03:14:08;7.82;;;2.15;;
33862;SDS011;20158;51.436;-2.742;2023-01-31T03:17:30;9.57;;;2.30;;
33862;SDS011;20158;51.436;-2.742;2023-01-31T03:20:01;5.60;;;1.90;;
33862;SDS011;20158;51.436;-2.742;2023-01-31T03:22:48;9.45;;;3.40;;
33862;SDS011;20158;51.436;-2.742;2023-01-31T03:25:19;10.82;;;2.33;;
33862;SDS011;20158;51.436;-2.742;2023-01-31T03:30:23;5.60;;;1.55;;
33862;SDS011;20158;51.436;-2.742;2023-01-31T03:33:12;9.52;;;2.83;;
33862;SDS011;20158;51.436;-2.742;2023-01-31T03:35:44;5.50;;;2.25;;
33862;SDS011;20158;51.436;-2.742;2023-01-31T03:38:16;11.95;;;2.97;;
33862;SDS011;20158;51.436;-2.742;2023-01-31T03:40:55;9.82;;;2.67;;
33862;SDS011;20158;51.436;-2.742;2023-01-31T03:43:31;6.72;;;2.38;;
33862;SDS011;20158;51.436;-2.742;2023-01-31T03:48:40;14.95;;;3.03;;
33862;SDS011;20158;51.436;-2.742;2023-01-31T03:51:10;8.73;;;1.92;;
33862;SDS011;20158;51.436;-2.742;2023-01-31T03:54:03;6.40;;;2.10;;
33862;SDS011;20158;51.436;-2.742;2023-01-31T03:56:35;9.80;;;1.98;;
33862;SDS011;20158;51.436;-2.742;2023-01-31T03:59:11;8.90;;;2.50;;
33862;SDS011;20158;51.436;-2.742;2023-01-31T04:01:44;7.20;;;1.95;;
33862;SDS011;20158;51.436;-2.742;2023-01-31T04:04:14;7.95;;;2.03;;
33862;SDS011;20158;51.436;-2.742;2023-01-31T04:06:43;4.35;;;1.98;;
33862;SDS011;20158;51.436;-2.742;2023-01-31T04:09:09;11.43;;;3.20;;
33862;SDS011;20158;51.436;-2.742;2023-01-31T04:11:36;8.60;;;2.10;;
33862;SDS011;20158;51.436;-2.742;2023-01-31T04:14:04;8.10;;;1.73;;
33862;SDS011;20158;51.436;-2.742;2023-01-31T04:16:30;8.18;;;2.00;;
33862;SDS011;20158;51.436;-2.742;2023-01-31T04:18:56;6.03;;;2.03;;
33862;SDS011;20158;51.436;-2.742;2023-01-31T04:21:22;8.73;;;2.75;;
33862;SDS011;20158;51.436;-2.742;2023-01-31T04:23:48;9.18;;;2.00;;
33862;SDS011;20158;51.436;-2.742;2023-01-31T04:26:14;12.68;;;2.38;;
33862;SDS011;20158;51.436;-2.742;2023-01-31T04:28:40;12.27;;;3.13;;
33862;SDS011;20158;51.436;-2.742;2023-01-31T04:31:06;5.95;;;1.75;;
33862;SDS011;20158;51.436;-2.742;2023-01-31T04:33:32;5.65;;;1.88;;
33862;SDS011;20158;51.436;-2.742;2023-01-31T04:35:58;10.50;;;2.13;;
33862;SDS011;20158;51.436;-2.742;2023-01-31T04:38:24;10.27;;;2.90;;
33862;SDS011;20158;51.436;-2.742;2023-01-31T04:40:50;13.05;;;2.63;;
33862;SDS011;20158;51.436;-2.742;2023-01-31T04:43:15;7.22;;;2.70;;
33862;SDS011;20158;51.436;-2.742;2023-01-31T04:45:42;8.73;;;1.95;;
33862;SDS011;20158;51.436;-2.742;2023-01-31T04:48:07;9.23;;;2.22;;
33862;SDS011;20158;51.436;-2.742;2023-01-31T04:50:33;5.95;;;2.03;;
33862;SDS011;20158;51.436;-2.742;2023-01-31T04:52:59;6.35;;;2.17;;
33862;SDS011;20158;51.436;-2.742;2023-01-31T04:55:25;5.88;;;1.83;;
33862;SDS011;20158;51.436;-2.742;2023-01-31T04:57:52;6.47;;;1.75;;
33862;SDS011;20158;51.436;-2.742;2023-01-31T05:00:18;6.88;;;1.77;;
33862;SDS011;20158;51.436;-2.742;2023-01-31T05:02:44;6.30;;;1.77;;
33862;SDS011;20158;51.436;-2.742;2023-01-31T05:05:10;7.93;;;2.22;;
33862;SDS011;20158;51.436;-2.742;2023-01-31T05:07:39;5.72;;;1.90;;
33862;SDS011;20158;51.436;-2.742;2023-01-31T05:10:05;9.68;;;2.22;;
33862;SDS011;20158;51.436;-2.742;2023-01-31T05:12:32;4.57;;;1.48;;
33862;SDS011;20158;51.436;-2.742;2023-01-31T05:14:58;7.43;;;2.30;;
33862;SDS011;20158;51.436;-2.742;2023-01-31T05:17:23;5.32;;;2.28;;
33862;SDS011;20158;51.436;-2.742;2023-01-31T05:19:50;7.30;;;1.55;;
33862;SDS011;20158;51.436;-2.742;2023-01-31T05:22:17;7.07;;;1.95;;
33862;SDS011;20158;51.436;-2.742;2023-01-31T05:24:47;8.93;;;1.98;;
33862;SDS011;20158;51.436;-2.742;2023-01-31T05:27:14;9.00;;;2.25;;
33862;SDS011;20158;51.436;-2.742;2023-01-31T05:29:40;9.35;;;2.35;;
33862;SDS011;20158;51.436;-2.742;2023-01-31T05:32:07;6.70;;;1.65;;
33862;SDS011;20158;51.436;-2.742;2023-01-31T05:34:33;6.20;;;1.60;;
33862;SDS011;20158;51.436;-2.742;2023-01-31T05:36:59;11.02;;;2.65;;
33862;SDS011;20158;51.436;-2.742;2023-01-31T05:39:26;4.85;;;2.20;;
33862;SDS011;20158;51.436;-2.742;2023-01-31T05:41:52;8.85;;;1.95;;
33862;SDS011;20158;51.436;-2.742;2023-01-31T05:44:18;9.98;;;2.33;;
33862;SDS011;20158;51.436;-2.742;2023-01-31T05:46:45;6.55;;;2.00;;
33862;SDS011;20158;51.436;-2.742;2023-01-31T05:49:11;6.85;;;2.30;;
33862;SDS011;20158;51.436;-2.742;2023-01-31T05:51:38;11.30;;;2.35;;
33862;SDS011;20158;51.436;-2.742;2023-01-31T05:54:04;10.27;;;2.58;;
33862;SDS011;20158;51.436;-2.742;2023-01-31T05:56:30;6.85;;;2.03;;
33862;SDS011;20158;51.436;-2.742;2023-01-31T05:58:57;9.15;;;2.25;;
33862;SDS011;20158;51.436;-2.742;2023-01-31T06:01:24;10.65;;;2.33;;
33862;SDS011;20158;51.436;-2.742;2023-01-31T06:03:51;13.93;;;2.88;;
33862;SDS011;20158;51.436;-2.742;2023-01-31T06:06:17;13.40;;;2.25;;
33862;SDS011;20158;51.436;-2.742;2023-01-31T06:08:44;14.65;;;2.35;;
33862;SDS011;20158;51.436;-2.742;2023-01-31T06:11:10;13.35;;;3.58;;
33862;SDS011;20158;51.436;-2.742;2023-01-31T06:13:36;13.43;;;3.25;;
33862;SDS011;20158;51.436;-2.742;2023-01-31T06:16:04;14.18;;;2.45;;
33862;SDS011;20158;51.436;-2.742;2023-01-31T06:18:30;12.75;;;2.58;;
33862;SDS011;20158;51.436;-2.742;2023-01-31T06:20:57;11.57;;;2.97;;
33862;SDS011;20158;51.436;-2.742;2023-01-31T06:23:24;12.07;;;2.67;;
33862;SDS011;20158;51.436;-2.742;2023-01-31T06:25:50;12.52;;;3.20;;
33862;SDS011;20158;51.436;-2.742;2023-01-31T06:28:17;16.05;;;3.45;;
33862;SDS011;20158;51.436;-2.742;2023-01-31T06:30:43;10.93;;;3.28;;
33862;SDS011;20158;51.436;-2.742;2023-01-31T06:33:10;14.48;;;2.88;;
33862;SDS011;20158;51.436;-2.742;2023-01-31T06:35:37;16.70;;;2.85;;
33862;SDS011;20158;51.436;-2.742;2023-01-31T06:38:03;14.48;;;2.85;;
33862;SDS011;20158;51.436;-2.742;2023-01-31T06:40:30;15.35;;;3.53;;
33862;SDS011;20158;51.436;-2.742;2023-01-31T06:42:56;12.32;;;2.75;;
33862;SDS011;20158;51.436;-2.742;2023-01-31T06:45:22;9.38;;;2.78;;
33862;SDS011;20158;51.436;-2.742;2023-01-31T06:47:48;18.63;;;4.43;;
33862;SDS011;20158;51.436;-2.742;2023-01-31T06:50:14;19.73;;;5.07;;
33862;SDS011;20158;51.436;-2.742;2023-01-31T06:52:40;23.85;;;4.05;;
33862;SDS011;20158;51.436;-2.742;2023-01-31T06:55:07;16.90;;;3.25;;
33862;SDS011;20158;51.436;-2.742;2023-01-31T06:57:33;16.38;;;5.45;;
33862;SDS011;20158;51.436;-2.742;2023-01-31T06:59:59;16.30;;;4.53;;
33862;SDS011;20158;51.436;-2.742;2023-01-31T07:02:25;14.70;;;3.08;;
33862;SDS011;20158;51.436;-2.742;2023-01-31T07:04:51;23.05;;;4.32;;
33862;SDS011;20158;51.436;-2.742;2023-01-31T07:07:17;17.00;;;3.88;;
33862;SDS011;20158;51.436;-2.742;2023-01-31T07:09:43;16.77;;;3.47;;
33862;SDS011;20158;51.436;-2.742;2023-01-31T07:12:09;17.65;;;3.70;;
33862;SDS011;20158;51.436;-2.742;2023-01-31T07:14:35;18.13;;;3.38;;
33862;SDS011;20158;51.436;-2.742;2023-01-31T07:17:01;18.08;;;3.10;;
33862;SDS011;20158;51.436;-2.742;2023-01-31T07:19:27;15.35;;;3.17;;
33862;SDS011;20158;51.436;-2.742;2023-01-31T07:21:53;18.75;;;4.55;;
33862;SDS011;20158;51.436;-2.742;2023-01-31T07:24:19;17.83;;;3.75;;
33862;SDS011;20158;51.436;-2.742;2023-01-31T07:26:45;13.45;;;3.35;;
33862;SDS011;20158;51.436;-2.742;2023-01-31T07:29:11;12.63;;;2.85;;
33862;SDS011;20158;51.436;-2.742;2023-01-31T07:31:38;17.77;;;3.20;;
33862;SDS011;20158;51.436;-2.742;2023-01-31T07:34:04;13.85;;;2.72;;
33862;SDS011;20158;51.436;-2.742;2023-01-31T07:36:30;13.38;;;2.65;;
33862;SDS011;20158;51.436;-2.742;2023-01-31T07:38:56;12.70;;;2.95;;
33862;SDS011;20158;51.436;-2.742;2023-01-31T07:41:23;15.40;;;3.55;;
33862;SDS011;20158;51.436;-2.742;2023-01-31T07:43:50;11.32;;;3.05;;
33862;SDS011;20158;51.436;-2.742;2023-01-31T07:46:16;12.95;;;3.58;;
33862;SDS011;20158;51.436;-2.742;2023-01-31T07:48:42;12.80;;;3.53;;
33862;SDS011;20158;51.436;-2.742;2023-01-31T07:51:09;13.98;;;2.72;;
33862;SDS011;20158;51.436;-2.742;2023-01-31T07:53:36;14.30;;;3.72;;
33862;SDS011;20158;51.436;-2.742;2023-01-31T07:58:37;9.80;;;2.00;;
33862;SDS011;20158;51.436;-2.742;2023-01-31T08:01:05;9.77;;;2.75;;
33862;SDS011;20158;51.436;-2.742;2023-01-31T08:03:50;10.80;;;2.30;;
33862;SDS011;20158;51.436;-2.742;2023-01-31T08:06:17;8.98;;;2.00;;
33862;SDS011;20158;51.436;-2.742;2023-01-31T08:08:44;10.45;;;2.47;;
33862;SDS011;20158;51.436;-2.742;2023-01-31T08:11:10;11.82;;;2.67;;
33862;SDS011;20158;51.436;-2.742;2023-01-31T08:13:36;9.45;;;2.45;;
33862;SDS011;20158;51.436;-2.742;2023-01-31T08:16:04;7.38;;;2.22;;
33862;SDS011;20158;51.436;-2.742;2023-01-31T08:18:32;10.25;;;2.08;;
33862;SDS011;20158;51.436;-2.742;2023-01-31T08:20:58;10.38;;;2.17;;
33862;SDS011;20158;51.436;-2.742;2023-01-31T08:23:25;7.10;;;1.73;;
33862;SDS011;20158;51.436;-2.742;2023-01-31T08:25:52;8.85;;;2.33;;
33862;SDS011;20158;51.436;-2.742;2023-01-31T08:28:24;9.85;;;3.08;;
33862;SDS011;20158;51.436;-2.742;2023-01-31T08:30:50;6.75;;;2.08;;
33862;SDS011;20158;51.436;-2.742;2023-01-31T08:33:16;6.93;;;2.25;;
33862;SDS011;20158;51.436;-2.742;2023-01-31T08:35:42;8.82;;;2.67;;
33862;SDS011;20158;51.436;-2.742;2023-01-31T08:38:08;11.75;;;3.10;;
33862;SDS011;20158;51.436;-2.742;2023-01-31T08:40:35;8.82;;;1.95;;
33862;SDS011;20158;51.436;-2.742;2023-01-31T08:43:01;10.32;;;3.22;;
33862;SDS011;20158;51.436;-2.742;2023-01-31T08:45:27;9.73;;;2.72;;
33862;SDS011;20158;51.436;-2.742;2023-01-31T08:47:54;11.60;;;3.72;;
33862;SDS011;20158;51.436;-2.742;2023-01-31T08:50:22;9.70;;;3.20;;
33862;SDS011;20158;51.436;-2.742;2023-01-31T08:52:56;11.15;;;3.05;;
33862;SDS011;20158;51.436;-2.742;2023-01-31T08:55:24;14.10;;;3.17;;
33862;SDS011;20158;51.436;-2.742;2023-01-31T08:57:51;11.98;;;3.15;;
33862;SDS011;20158;51.436;-2.742;2023-01-31T09:00:18;12.48;;;3.13;;
33862;SDS011;20158;51.436;-2.742;2023-01-31T09:02:51;16.23;;;2.78;;
33862;SDS011;20158;51.436;-2.742;2023-01-31T09:05:18;11.80;;;4.63;;
33862;SDS011;20158;51.436;-2.742;2023-01-31T09:07:45;13.05;;;2.95;;
33862;SDS011;20158;51.436;-2.742;2023-01-31T09:10:11;9.80;;;2.92;;
33862;SDS011;20158;51.436;-2.742;2023-01-31T09:12:37;10.73;;;2.08;;
33862;SDS011;20158;51.436;-2.742;2023-01-31T09:15:03;13.48;;;4.03;;
33862;SDS011;20158;51.436;-2.742;2023-01-31T09:17:30;7.80;;;2.08;;
33862;SDS011;20158;51.436;-2.742;2023-01-31T09:19:56;10.30;;;3.10;;
33862;SDS011;20158;51.436;-2.742;2023-01-31T09:22:22;12.90;;;2.83;;
33862;SDS011;20158;51.436;-2.742;2023-01-31T09:24:48;12.32;;;2.55;;
33862;SDS011;20158;51.436;-2.742;2023-01-31T09:27:14;13.50;;;3.55;;
33862;SDS011;20158;51.436;-2.742;2023-01-31T09:29:41;10.25;;;3.08;;
33862;SDS011;20158;51.436;-2.742;2023-01-31T09:32:07;11.32;;;2.97;;
33862;SDS011;20158;51.436;-2.742;2023-01-31T09:34:33;11.40;;;2.47;;
33862;SDS011;20158;51.436;-2.742;2023-01-31T09:36:59;14.90;;;3.17;;
33862;SDS011;20158;51.436;-2.742;2023-01-31T09:39:25;11.38;;;3.13;;
33862;SDS011;20158;51.436;-2.742;2023-01-31T09:41:55;10.80;;;3.28;;
33862;SDS011;20158;51.436;-2.742;2023-01-31T09:44:32;10.60;;;2.80;;
33862;SDS011;20158;51.436;-2.742;2023-01-31T09:47:21;11.90;;;3.28;;
33862;SDS011;20158;51.436;-2.742;2023-01-31T09:49:59;13.18;;;4.32;;
33862;SDS011;20158;51.436;-2.742;2023-01-31T09:52:29;10.20;;;3.00;;
33862;SDS011;20158;51.436;-2.742;2023-01-31T09:54:56;10.85;;;3.30;;
33862;SDS011;20158;51.436;-2.742;2023-01-31T10:00:45;7.35;;;2.30;;
33862;SDS011;20158;51.436;-2.742;2023-01-31T10:08:59;14.60;;;4.20;;
33862;SDS011;20158;51.436;-2.742;2023-01-31T10:11:37;12.45;;;3.50;;
33862;SDS011;20158;51.436;-2.742;2023-01-31T10:16:42;10.90;;;3.55;;
33862;SDS011;20158;51.436;-2.742;2023-01-31T10:19:23;7.78;;;2.63;;
33862;SDS011;20158;51.436;-2.742;2023-01-31T10:21:56;9.30;;;2.63;;
33862;SDS011;20158;51.436;-2.742;2023-01-31T10:30:11;10.95;;;2.85;;
33862;SDS011;20158;51.436;-2.742;2023-01-31T10:35:18;9.32;;;2.67;;
33862;SDS011;20158;51.436;-2.742;2023-01-31T10:37:50;10.93;;;2.90;;
33862;SDS011;20158;51.436;-2.742;2023-01-31T10:40:22;9.85;;;3.20;;
33862;SDS011;20158;51.436;-2.742;2023-01-31T10:42:52;9.07;;;2.67;;
33862;SDS011;20158;51.436;-2.742;2023-01-31T10:45:25;10.02;;;3.30;;
33862;SDS011;20158;51.436;-2.742;2023-01-31T10:48:03;14.93;;;3.67;;
33862;SDS011;20158;51.436;-2.742;2023-01-31T10:53:30;10.15;;;2.65;;
33862;SDS011;20158;51.436;-2.742;2023-01-31T10:58:46;10.90;;;3.15;;
33862;SDS011;20158;51.436;-2.742;2023-01-31T11:01:14;7.60;;;3.67;;
33862;SDS011;20158;51.436;-2.742;2023-01-31T11:03:44;8.23;;;3.50;;
33862;SDS011;20158;51.436;-2.742;2023-01-31T11:06:18;15.13;;;3.42;;
33862;SDS011;20158;51.436;-2.742;2023-01-31T11:08:46;9.77;;;3.30;;
33862;SDS011;20158;51.436;-2.742;2023-01-31T11:11:25;8.00;;;3.20;;
33862;SDS011;20158;51.436;-2.742;2023-01-31T11:14:05;10.68;;;3.65;;
33862;SDS011;20158;51.436;-2.742;2023-01-31T11:16:40;7.25;;;3.53;;
33862;SDS011;20158;51.436;-2.742;2023-01-31T11:19:14;9.73;;;4.65;;
33862;SDS011;20158;51.436;-2.742;2023-01-31T11:21:51;7.05;;;3.90;;
33862;SDS011;20158;51.436;-2.742;2023-01-31T11:24:19;7.00;;;3.28;;
33862;SDS011;20158;51.436;-2.742;2023-01-31T11:27:06;10.98;;;4.18;;
33862;SDS011;20158;51.436;-2.742;2023-01-31T11:29:40;7.85;;;4.05;;
33862;SDS011;20158;51.436;-2.742;2023-01-31T11:32:16;8.77;;;4.85;;
33862;SDS011;20158;51.436;-2.742;2023-01-31T11:34:54;7.40;;;4.05;;
33862;SDS011;20158;51.436;-2.742;2023-01-31T11:37:25;11.13;;;5.07;;
33862;SDS011;20158;51.436;-2.742;2023-01-31T11:39:53;9.05;;;4.07;;
33862;SDS011;20158;51.436;-2.742;2023-01-31T11:42:22;6.57;;;3.22;;
33862;SDS011;20158;51.436;-2.742;2023-01-31T11:47:40;6.97;;;2.67;;
33862;SDS011;20158;51.436;-2.742;2023-01-31T11:50:20;10.60;;;3.50;;
33862;SDS011;20158;51.436;-2.742;2023-01-31T11:53:01;11.82;;;3.42;;
33862;SDS011;20158;51.436;-2.742;2023-01-31T11:55:48;13.68;;;5.32;;
33862;SDS011;20158;51.436;-2.742;2023-01-31T12:01:13;16.58;;;6.07;;
33862;SDS011;20158;51.436;-2.742;2023-01-31T12:06:28;21.33;;;8.32;;
33862;SDS011;20158;51.436;-2.742;2023-01-31T12:08:56;22.23;;;9.63;;
33862;SDS011;20158;51.436;-2.742;2023-01-31T12:14:58;31.90;;;13.00;;
33862;SDS011;20158;51.436;-2.742;2023-01-31T12:17:06;33.45;;;15.30;;
33862;SDS011;20158;51.436;-2.742;2023-01-31T12:22:33;38.20;;;15.85;;
33862;SDS011;20158;51.436;-2.742;2023-01-31T12:25:13;34.25;;;14.40;;
33862;SDS011;20158;51.436;-2.742;2023-01-31T12:28:02;34.08;;;16.08;;
33862;SDS011;20158;51.436;-2.742;2023-01-31T12:35:51;31.77;;;13.85;;
33862;SDS011;20158;51.436;-2.742;2023-01-31T12:41:26;37.15;;;15.05;;
33862;SDS011;20158;51.436;-2.742;2023-01-31T12:50:23;31.25;;;14.95;;
33862;SDS011;20158;51.436;-2.742;2023-01-31T13:01:54;34.97;;;15.80;;
33862;SDS011;20158;51.436;-2.742;2023-01-31T13:04:51;37.78;;;15.18;;
33862;SDS011;20158;51.436;-2.742;2023-01-31T13:07:29;30.95;;;14.20;;
33862;SDS011;20158;51.436;-2.742;2023-01-31T13:10:02;28.23;;;12.45;;
33862;SDS011;20158;51.436;-2.742;2023-01-31T13:12:31;30.67;;;14.18;;
33862;SDS011;20158;51.436;-2.742;2023-01-31T13:15:01;29.45;;;12.50;;
33862;SDS011;20158;51.436;-2.742;2023-01-31T13:17:40;35.55;;;15.30;;
33862;SDS011;20158;51.436;-2.742;2023-01-31T13:22:44;29.73;;;13.68;;
33862;SDS011;20158;51.436;-2.742;2023-01-31T13:25:21;29.38;;;12.70;;
33862;SDS011;20158;51.436;-2.742;2023-01-31T13:28:20;32.47;;;12.05;;
33862;SDS011;20158;51.436;-2.742;2023-01-31T13:30:55;26.35;;;13.00;;
33862;SDS011;20158;51.436;-2.742;2023-01-31T13:33:26;26.50;;;12.52;;
33862;SDS011;20158;51.436;-2.742;2023-01-31T13:36:02;24.92;;;11.35;;
33862;SDS011;20158;51.436;-2.742;2023-01-31T13:38:44;28.05;;;13.63;;
33862;SDS011;20158;51.436;-2.742;2023-01-31T13:41:27;29.60;;;12.20;;
33862;SDS011;20158;51.436;-2.742;2023-01-31T13:43:58;25.42;;;11.57;;
33862;SDS011;20158;51.436;-2.742;2023-01-31T13:46:31;24.70;;;10.05;;
33862;SDS011;20158;51.436;-2.742;2023-01-31T13:49:20;29.65;;;10.68;;
33862;SDS011;20158;51.436;-2.742;2023-01-31T13:51:57;26.17;;;9.00;;
33862;SDS011;20158;51.436;-2.742;2023-01-31T13:57:01;20.80;;;9.60;;
33862;SDS011;20158;51.436;-2.742;2023-01-31T13:59:30;17.35;;;8.88;;
33862;SDS011;20158;51.436;-2.742;2023-01-31T14:01:58;20.98;;;9.45;;
33862;SDS011;20158;51.436;-2.742;2023-01-31T14:04:27;25.15;;;10.90;;
33862;SDS011;20158;51.436;-2.742;2023-01-31T14:09:35;24.88;;;11.77;;
33862;SDS011;20158;51.436;-2.742;2023-01-31T14:17:04;18.50;;;8.88;;
33862;SDS011;20158;51.436;-2.742;2023-01-31T14:22:30;22.87;;;10.00;;
33862;SDS011;20158;51.436;-2.742;2023-01-31T14:24:59;14.60;;;8.35;;
33862;SDS011;20158;51.436;-2.742;2023-01-31T14:27:26;17.88;;;8.07;;
33862;SDS011;20158;51.436;-2.742;2023-01-31T14:32:57;15.68;;;7.55;;
33862;SDS011;20158;51.436;-2.742;2023-01-31T14:43:15;16.80;;;6.80;;
33862;SDS011;20158;51.436;-2.742;2023-01-31T14:48:40;15.38;;;6.80;;
33862;SDS011;20158;51.436;-2.742;2023-01-31T14:51:21;18.50;;;6.22;;
33862;SDS011;20158;51.436;-2.742;2023-01-31T14:59:27;18.58;;;6.53;;
33862;SDS011;20158;51.436;-2.742;2023-01-31T15:04:57;12.63;;;5.28;;
33862;SDS011;20158;51.436;-2.742;2023-01-31T15:07:35;16.27;;;5.82;;
33862;SDS011;20158;51.436;-2.742;2023-01-31T15:16:25;14.75;;;6.05;;
33862;SDS011;20158;51.436;-2.742;2023-01-31T15:18:52;12.50;;;5.05;;
33862;SDS011;20158;51.436;-2.742;2023-01-31T15:21:36;12.10;;;5.60;;
33862;SDS011;20158;51.436;-2.742;2023-01-31T15:24:15;11.52;;;4.88;;
33862;SDS011;20158;51.436;-2.742;2023-01-31T15:26:43;16.37;;;5.83;;
33862;SDS011;20158;51.436;-2.742;2023-01-31T15:29:15;12.38;;;4.97;;
33862;SDS011;20158;51.436;-2.742;2023-01-31T15:31:46;14.88;;;5.07;;
33862;SDS011;20158;51.436;-2.742;2023-01-31T15:34:19;14.27;;;5.00;;
33862;SDS011;20158;51.436;-2.742;2023-01-31T15:39:27;13.82;;;5.57;;
33862;SDS011;20158;51.436;-2.742;2023-01-31T15:41:56;18.13;;;4.35;;
33862;SDS011;20158;51.436;-2.742;2023-01-31T15:44:23;11.65;;;4.75;;
33862;SDS011;20158;51.436;-2.742;2023-01-31T15:46:53;12.52;;;4.47;;
33862;SDS011;20158;51.436;-2.742;2023-01-31T15:52:03;13.82;;;4.60;;
33862;SDS011;20158;51.436;-2.742;2023-01-31T15:54:32;13.02;;;4.40;;
33862;SDS011;20158;51.436;-2.742;2023-01-31T15:56:59;9.85;;;4.07;;
33862;SDS011;20158;51.436;-2.742;2023-01-31T15:59:27;13.65;;;3.95;;
33862;SDS011;20158;51.436;-2.742;2023-01-31T16:01:56;12.30;;;4.50;;
33862;SDS011;20158;51.436;-2.742;2023-01-31T16:04:25;12.60;;;5.20;;
33862;SDS011;20158;51.436;-2.742;2023-01-31T16:06:52;12.57;;;3.60;;
33862;SDS011;20158;51.436;-2.742;2023-01-31T16:09:23;13.55;;;4.47;;
33862;SDS011;20158;51.436;-2.742;2023-01-31T16:11:56;11.18;;;4.00;;
33862;SDS011;20158;51.436;-2.742;2023-01-31T16:14:24;11.95;;;4.22;;
33862;SDS011;20158;51.436;-2.742;2023-01-31T16:16:52;12.98;;;4.05;;
33862;SDS011;20158;51.436;-2.742;2023-01-31T16:19:41;11.23;;;4.47;;
33862;SDS011;20158;51.436;-2.742;2023-01-31T16:22:22;12.75;;;4.88;;
33862;SDS011;20158;51.436;-2.742;2023-01-31T16:24:57;28.48;;;6.32;;
33862;SDS011;20158;51.436;-2.742;2023-01-31T16:27:26;12.00;;;4.63;;
33862;SDS011;20158;51.436;-2.742;2023-01-31T16:29:55;13.43;;;4.43;;
33862;SDS011;20158;51.436;-2.742;2023-01-31T16:32:26;13.02;;;5.05;;
33862;SDS011;20158;51.436;-2.742;2023-01-31T16:34:58;11.38;;;4.18;;
33862;SDS011;20158;51.436;-2.742;2023-01-31T16:37:35;11.35;;;3.90;;
33862;SDS011;20158;51.436;-2.742;2023-01-31T16:40:21;14.32;;;4.78;;
33862;SDS011;20158;51.436;-2.742;2023-01-31T16:43:08;13.35;;;4.07;;
33862;SDS011;20158;51.436;-2.742;2023-01-31T16:45:52;12.52;;;4.63;;
33862;SDS011;20158;51.436;-2.742;2023-01-31T16:48:28;13.80;;;3.50;;
33862;SDS011;20158;51.436;-2.742;2023-01-31T16:50:59;13.30;;;3.95;;
33862;SDS011;20158;51.436;-2.742;2023-01-31T16:54:10;11.07;;;3.95;;
33862;SDS011;20158;51.436;-2.742;2023-01-31T16:56:44;11.60;;;3.88;;
33862;SDS011;20158;51.436;-2.742;2023-01-31T17:04:40;10.30;;;5.35;;
33862;SDS011;20158;51.436;-2.742;2023-01-31T17:07:10;12.18;;;3.33;;
33862;SDS011;20158;51.436;-2.742;2023-01-31T17:09:41;12.13;;;4.13;;
33862;SDS011;20158;51.436;-2.742;2023-01-31T17:12:18;11.55;;;3.92;;
33862;SDS011;20158;51.436;-2.742;2023-01-31T17:14:47;14.90;;;3.17;;